sensor_id;sensor_type;location;lat;lon;timestamp;P1;durP1;ratioP1;P2;durP2;ratioP2
65737;SDS011;52478;51.844;6.582;2023-05-01T00:02:09;6.45;;;2.20;;
65737;SDS011;52478;51.844;6.582;2023-05-01T00:04:35;6.32;;;2.58;;
65737;SDS011;52478;51.844;6.582;2023-05-01T00:07:02;7.35;;;2.25;;
65737;SDS011;52478;51.844;6.582;2023-05-01T00:09:28;5.70;;;2.25;;
65737;SDS011;52478;51.844;6.582;2023-05-01T00:11:57;6.32;;;2.45;;
65737;SDS011;52478;51.844;6.582;2023-05-01T00:14:24;5.78;;;2.30;;
65737;SDS011;52478;51.844;6.582;2023-05-01T00:16:50;5.80;;;2.50;;
65737;SDS011;52478;51.844;6.582;2023-05-01T00:19:17;5.50;;;2.58;;
65737;SDS011;52478;51.844;6.582;2023-05-01T00:21:43;6.13;;;2.20;;
65737;SDS011;52478;51.844;6.582;2023-05-01T00:24:11;5.90;;;1.92;;
65737;SDS011;52478;51.844;6.582;2023-05-01T00:26:38;6.10;;;2.30;;
65737;SDS011;52478;51.844;6.582;2023-05-01T00:29:06;6.18;;;2.28;;
65737;SDS011;52478;51.844;6.582;2023-05-01T00:31:32;7.00;;;2.75;;
65737;SDS011;52478;51.844;6.582;2023-05-01T00:33:59;7.20;;;2.38;;
65737;SDS011;52478;51.844;6.582;2023-05-01T00:36:25;6.45;;;2.60;;
65737;SDS011;52478;51.844;6.582;2023-05-01T00:38:52;6.97;;;2.45;;
65737;SDS011;52478;51.844;6.582;2023-05-01T00:41:18;6.40;;;2.80;;
65737;SDS011;52478;51.844;6.582;2023-05-01T00:43:45;6.28;;;2.30;;
65737;SDS011;52478;51.844;6.582;2023-05-01T00:46:12;5.50;;;2.50;;
65737;SDS011;52478;51.844;6.582;2023-05-01T00:48:39;5.57;;;1.83;;
65737;SDS011;52478;51.844;6.582;2023-05-01T00:51:06;6.00;;;2.50;;
65737;SDS011;52478;51.844;6.582;2023-05-01T00:53:33;5.80;;;2.13;;
65737;SDS011;52478;51.844;6.582;2023-05-01T00:56:00;6.35;;;2.60;;
65737;SDS011;52478;51.844;6.582;2023-05-01T00:58:26;5.63;;;1.98;;
65737;SDS011;52478;51.844;6.582;2023-05-01T01:00:54;5.50;;;2.47;;
65737;SDS011;52478;51.844;6.582;2023-05-01T01:03:22;5.88;;;2.47;;
65737;SDS011;52478;51.844;6.582;2023-05-01T01:05:50;7.60;;;2.10;;
65737;SDS011;52478;51.844;6.582;2023-05-01T01:08:22;7.15;;;2.15;;
65737;SDS011;52478;51.844;6.582;2023-05-01T01:10:54;6.47;;;2.05;;
65737;SDS011;52478;51.844;6.582;2023-05-01T01:13:28;6.72;;;2.75;;
65737;SDS011;52478;51.844;6.582;2023-05-01T01:15:58;5.72;;;2.05;;
65737;SDS011;52478;51.844;6.582;2023-05-01T01:18:35;6.63;;;2.50;;
65737;SDS011;52478;51.844;6.582;2023-05-01T01:21:07;6.60;;;2.40;;
65737;SDS011;52478;51.844;6.582;2023-05-01T01:23:52;6.45;;;2.28;;
65737;SDS011;52478;51.844;6.582;2023-05-01T01:26:54;6.07;;;2.38;;
65737;SDS011;52478;51.844;6.582;2023-05-01T01:29:46;5.40;;;2.05;;
65737;SDS011;52478;51.844;6.582;2023-05-01T01:32:29;6.03;;;2.10;;
65737;SDS011;52478;51.844;6.582;2023-05-01T01:35:15;7.13;;;2.30;;
65737;SDS011;52478;51.844;6.582;2023-05-01T01:37:46;7.50;;;2.75;;
65737;SDS011;52478;51.844;6.582;2023-05-01T01:40:16;5.97;;;2.15;;
65737;SDS011;52478;51.844;6.582;2023-05-01T01:42:48;5.40;;;2.03;;
65737;SDS011;52478;51.844;6.582;2023-05-01T01:45:20;7.80;;;2.35;;
65737;SDS011;52478;51.844;6.582;2023-05-01T01:47:48;6.45;;;2.03;;
65737;SDS011;52478;51.844;6.582;2023-05-01T01:50:19;5.70;;;2.13;;
65737;SDS011;52478;51.844;6.582;2023-05-01T01:52:49;7.35;;;2.60;;
65737;SDS011;52478;51.844;6.582;2023-05-01T01:55:17;6.60;;;2.30;;
65737;SDS011;52478;51.844;6.582;2023-05-01T01:57:48;6.30;;;2.10;;
65737;SDS011;52478;51.844;6.582;2023-05-01T02:02:42;6.95;;;2.00;;
65737;SDS011;52478;51.844;6.582;2023-05-01T02:05:12;6.05;;;2.22;;
65737;SDS011;52478;51.844;6.582;2023-05-01T02:07:42;6.13;;;2.10;;
65737;SDS011;52478;51.844;6.582;2023-05-01T02:10:12;5.97;;;2.03;;
65737;SDS011;52478;51.844;6.582;2023-05-01T02:12:40;5.82;;;1.92;;
65737;SDS011;52478;51.844;6.582;2023-05-01T02:15:09;5.60;;;2.15;;
65737;SDS011;52478;51.844;6.582;2023-05-01T02:17:36;5.85;;;2.00;;
65737;SDS011;52478;51.844;6.582;2023-05-01T02:20:05;6.43;;;2.05;;
65737;SDS011;52478;51.844;6.582;2023-05-01T02:22:34;6.35;;;1.98;;
65737;SDS011;52478;51.844;6.582;2023-05-01T02:25:03;5.30;;;1.77;;
65737;SDS011;52478;51.844;6.582;2023-05-01T02:27:34;6.03;;;2.20;;
65737;SDS011;52478;51.844;6.582;2023-05-01T02:30:02;6.13;;;2.15;;
65737;SDS011;52478;51.844;6.582;2023-05-01T02:32:30;5.78;;;2.15;;
65737;SDS011;52478;51.844;6.582;2023-05-01T02:34:57;6.15;;;2.20;;
65737;SDS011;52478;51.844;6.582;2023-05-01T02:37:25;6.35;;;2.60;;
65737;SDS011;52478;51.844;6.582;2023-05-01T02:39:52;5.85;;;2.28;;
65737;SDS011;52478;51.844;6.582;2023-05-01T02:42:21;7.00;;;2.30;;
65737;SDS011;52478;51.844;6.582;2023-05-01T02:44:51;7.20;;;2.22;;
65737;SDS011;52478;51.844;6.582;2023-05-01T02:47:21;5.32;;;2.30;;
65737;SDS011;52478;51.844;6.582;2023-05-01T02:49:49;5.93;;;2.17;;
65737;SDS011;52478;51.844;6.582;2023-05-01T02:52:17;5.05;;;1.95;;
65737;SDS011;52478;51.844;6.582;2023-05-01T02:54:45;5.60;;;2.35;;
65737;SDS011;52478;51.844;6.582;2023-05-01T02:57:12;5.35;;;2.17;;
65737;SDS011;52478;51.844;6.582;2023-05-01T02:59:40;5.90;;;2.30;;
65737;SDS011;52478;51.844;6.582;2023-05-01T03:02:07;5.85;;;2.30;;
65737;SDS011;52478;51.844;6.582;2023-05-01T03:04:33;5.45;;;2.08;;
65737;SDS011;52478;51.844;6.582;2023-05-01T03:07:00;5.40;;;2.20;;
65737;SDS011;52478;51.844;6.582;2023-05-01T03:09:28;7.75;;;2.30;;
65737;SDS011;52478;51.844;6.582;2023-05-01T03:11:55;5.95;;;2.15;;
65737;SDS011;52478;51.844;6.582;2023-05-01T03:14:21;6.10;;;2.35;;
65737;SDS011;52478;51.844;6.582;2023-05-01T03:16:49;5.50;;;2.20;;
65737;SDS011;52478;51.844;6.582;2023-05-01T03:19:16;5.65;;;2.00;;
65737;SDS011;52478;51.844;6.582;2023-05-01T03:21:42;6.53;;;2.20;;
65737;SDS011;52478;51.844;6.582;2023-05-01T03:24:09;5.85;;;2.15;;
65737;SDS011;52478;51.844;6.582;2023-05-01T03:26:35;5.40;;;2.38;;
65737;SDS011;52478;51.844;6.582;2023-05-01T03:29:02;5.90;;;2.03;;
65737;SDS011;52478;51.844;6.582;2023-05-01T03:31:28;6.00;;;2.13;;
65737;SDS011;52478;51.844;6.582;2023-05-01T03:33:56;5.97;;;1.98;;
65737;SDS011;52478;51.844;6.582;2023-05-01T03:36:23;6.40;;;2.20;;
65737;SDS011;52478;51.844;6.582;2023-05-01T03:38:49;8.13;;;2.78;;
65737;SDS011;52478;51.844;6.582;2023-05-01T03:41:16;6.35;;;1.98;;
65737;SDS011;52478;51.844;6.582;2023-05-01T03:43:42;5.80;;;2.20;;
65737;SDS011;52478;51.844;6.582;2023-05-01T03:46:09;6.28;;;2.10;;
65737;SDS011;52478;51.844;6.582;2023-05-01T03:48:35;6.00;;;2.25;;
65737;SDS011;52478;51.844;6.582;2023-05-01T03:51:04;5.60;;;2.05;;
65737;SDS011;52478;51.844;6.582;2023-05-01T03:53:30;6.05;;;2.60;;
65737;SDS011;52478;51.844;6.582;2023-05-01T03:55:57;5.10;;;2.22;;
65737;SDS011;52478;51.844;6.582;2023-05-01T03:58:23;5.82;;;2.33;;
65737;SDS011;52478;51.844;6.582;2023-05-01T04:00:50;7.05;;;2.40;;
65737;SDS011;52478;51.844;6.582;2023-05-01T04:03:20;5.38;;;2.00;;
65737;SDS011;52478;51.844;6.582;2023-05-01T04:05:47;5.45;;;2.30;;
65737;SDS011;52478;51.844;6.582;2023-05-01T04:08:15;5.47;;;2.42;;
65737;SDS011;52478;51.844;6.582;2023-05-01T04:10:41;5.40;;;2.05;;
65737;SDS011;52478;51.844;6.582;2023-05-01T04:13:08;5.68;;;2.05;;
65737;SDS011;52478;51.844;6.582;2023-05-01T04:15:35;6.35;;;2.05;;
65737;SDS011;52478;51.844;6.582;2023-05-01T04:18:01;5.90;;;2.30;;
65737;SDS011;52478;51.844;6.582;2023-05-01T04:20:27;5.75;;;2.03;;
65737;SDS011;52478;51.844;6.582;2023-05-01T04:22:54;7.28;;;2.35;;
65737;SDS011;52478;51.844;6.582;2023-05-01T04:25:22;5.28;;;2.15;;
65737;SDS011;52478;51.844;6.582;2023-05-01T04:27:48;5.45;;;2.30;;
65737;SDS011;52478;51.844;6.582;2023-05-01T04:30:15;5.10;;;1.92;;
65737;SDS011;52478;51.844;6.582;2023-05-01T04:32:42;5.70;;;2.25;;
65737;SDS011;52478;51.844;6.582;2023-05-01T04:35:08;5.90;;;2.03;;
65737;SDS011;52478;51.844;6.582;2023-05-01T04:37:36;6.78;;;2.20;;
65737;SDS011;52478;51.844;6.582;2023-05-01T04:40:03;6.43;;;2.20;;
65737;SDS011;52478;51.844;6.582;2023-05-01T04:44:57;6.13;;;2.13;;
65737;SDS011;52478;51.844;6.582;2023-05-01T04:47:25;4.95;;;2.10;;
65737;SDS011;52478;51.844;6.582;2023-05-01T04:49:52;5.40;;;2.00;;
65737;SDS011;52478;51.844;6.582;2023-05-01T04:52:18;5.25;;;2.13;;
65737;SDS011;52478;51.844;6.582;2023-05-01T04:54:45;5.68;;;2.00;;
65737;SDS011;52478;51.844;6.582;2023-05-01T04:57:11;5.88;;;2.08;;
65737;SDS011;52478;51.844;6.582;2023-05-01T04:59:39;5.93;;;2.08;;
65737;SDS011;52478;51.844;6.582;2023-05-01T05:02:05;5.60;;;2.05;;
65737;SDS011;52478;51.844;6.582;2023-05-01T05:19:12;5.10;;;1.92;;
65737;SDS011;52478;51.844;6.582;2023-05-01T05:21:38;5.20;;;1.92;;
65737;SDS011;52478;51.844;6.582;2023-05-01T05:24:05;5.20;;;2.22;;
65737;SDS011;52478;51.844;6.582;2023-05-01T05:26:31;5.50;;;2.00;;
65737;SDS011;52478;51.844;6.582;2023-05-01T05:28:58;5.60;;;2.40;;
65737;SDS011;52478;51.844;6.582;2023-05-01T05:31:24;5.22;;;1.90;;
65737;SDS011;52478;51.844;6.582;2023-05-01T05:33:52;5.28;;;2.30;;
65737;SDS011;52478;51.844;6.582;2023-05-01T05:36:18;6.28;;;2.13;;
65737;SDS011;52478;51.844;6.582;2023-05-01T05:38:45;5.68;;;2.00;;
65737;SDS011;52478;51.844;6.582;2023-05-01T05:41:11;7.97;;;2.10;;
65737;SDS011;52478;51.844;6.582;2023-05-01T05:43:38;5.10;;;2.05;;
65737;SDS011;52478;51.844;6.582;2023-05-01T05:46:04;5.65;;;2.10;;
65737;SDS011;52478;51.844;6.582;2023-05-01T05:48:31;5.53;;;2.40;;
65737;SDS011;52478;51.844;6.582;2023-05-01T05:50:59;5.53;;;2.17;;
65737;SDS011;52478;51.844;6.582;2023-05-01T05:53:25;6.15;;;2.50;;
65737;SDS011;52478;51.844;6.582;2023-05-01T05:55:52;5.57;;;2.20;;
65737;SDS011;52478;51.844;6.582;2023-05-01T05:58:19;5.82;;;2.15;;
65737;SDS011;52478;51.844;6.582;2023-05-01T06:00:46;6.80;;;2.67;;
65737;SDS011;52478;51.844;6.582;2023-05-01T06:03:13;5.82;;;2.47;;
65737;SDS011;52478;51.844;6.582;2023-05-01T06:05:40;5.78;;;2.55;;
65737;SDS011;52478;51.844;6.582;2023-05-01T06:08:08;6.28;;;2.78;;
65737;SDS011;52478;51.844;6.582;2023-05-01T06:10:35;5.63;;;2.70;;
65737;SDS011;52478;51.844;6.582;2023-05-01T06:13:03;7.38;;;2.75;;
65737;SDS011;52478;51.844;6.582;2023-05-01T06:15:30;6.03;;;2.20;;
65737;SDS011;52478;51.844;6.582;2023-05-01T06:17:56;6.50;;;2.65;;
65737;SDS011;52478;51.844;6.582;2023-05-01T06:20:23;6.47;;;2.33;;
65737;SDS011;52478;51.844;6.582;2023-05-01T06:22:49;5.90;;;2.30;;
65737;SDS011;52478;51.844;6.582;2023-05-01T06:25:17;6.47;;;2.10;;
65737;SDS011;52478;51.844;6.582;2023-05-01T06:27:44;6.13;;;2.22;;
65737;SDS011;52478;51.844;6.582;2023-05-01T06:30:10;6.43;;;2.42;;
65737;SDS011;52478;51.844;6.582;2023-05-01T06:32:37;5.63;;;2.35;;
65737;SDS011;52478;51.844;6.582;2023-05-01T06:35:06;5.85;;;2.53;;
65737;SDS011;52478;51.844;6.582;2023-05-01T06:37:33;6.13;;;2.67;;
65737;SDS011;52478;51.844;6.582;2023-05-01T06:39:59;6.75;;;2.45;;
65737;SDS011;52478;51.844;6.582;2023-05-01T06:42:27;6.85;;;2.45;;
65737;SDS011;52478;51.844;6.582;2023-05-01T06:44:54;7.22;;;2.60;;
65737;SDS011;52478;51.844;6.582;2023-05-01T06:47:20;5.68;;;2.30;;
65737;SDS011;52478;51.844;6.582;2023-05-01T06:49:47;7.07;;;2.45;;
65737;SDS011;52478;51.844;6.582;2023-05-01T06:52:13;6.45;;;2.50;;
65737;SDS011;52478;51.844;6.582;2023-05-01T06:54:40;6.10;;;2.53;;
65737;SDS011;52478;51.844;6.582;2023-05-01T06:57:06;5.82;;;2.13;;
65737;SDS011;52478;51.844;6.582;2023-05-01T06:59:34;6.85;;;2.70;;
65737;SDS011;52478;51.844;6.582;2023-05-01T07:02:00;6.75;;;2.40;;
65737;SDS011;52478;51.844;6.582;2023-05-01T07:04:27;6.18;;;2.42;;
65737;SDS011;52478;51.844;6.582;2023-05-01T07:06:53;6.20;;;2.30;;
65737;SDS011;52478;51.844;6.582;2023-05-01T07:09:20;6.78;;;2.42;;
65737;SDS011;52478;51.844;6.582;2023-05-01T07:11:46;6.63;;;2.78;;
65737;SDS011;52478;51.844;6.582;2023-05-01T07:14:13;6.20;;;2.38;;
65737;SDS011;52478;51.844;6.582;2023-05-01T07:16:41;6.18;;;2.63;;
65737;SDS011;52478;51.844;6.582;2023-05-01T07:19:07;6.22;;;2.83;;
65737;SDS011;52478;51.844;6.582;2023-05-01T07:21:34;7.03;;;2.38;;
65737;SDS011;52478;51.844;6.582;2023-05-01T07:24:00;8.43;;;3.00;;
65737;SDS011;52478;51.844;6.582;2023-05-01T07:26:27;7.47;;;3.08;;
65737;SDS011;52478;51.844;6.582;2023-05-01T07:28:53;6.72;;;2.40;;
65737;SDS011;52478;51.844;6.582;2023-05-01T07:31:20;7.25;;;2.63;;
65737;SDS011;52478;51.844;6.582;2023-05-01T07:33:48;6.18;;;2.83;;
65737;SDS011;52478;51.844;6.582;2023-05-01T07:36:14;7.53;;;2.47;;
65737;SDS011;52478;51.844;6.582;2023-05-01T07:38:42;6.35;;;2.70;;
65737;SDS011;52478;51.844;6.582;2023-05-01T07:41:09;7.55;;;2.33;;
65737;SDS011;52478;51.844;6.582;2023-05-01T07:43:35;6.68;;;2.42;;
65737;SDS011;52478;51.844;6.582;2023-05-01T07:46:02;7.85;;;2.60;;
65737;SDS011;52478;51.844;6.582;2023-05-01T07:48:30;7.35;;;2.80;;
65737;SDS011;52478;51.844;6.582;2023-05-01T07:51:01;6.43;;;2.60;;
65737;SDS011;52478;51.844;6.582;2023-05-01T07:53:28;7.38;;;3.10;;
65737;SDS011;52478;51.844;6.582;2023-05-01T07:56:03;6.90;;;2.67;;
65737;SDS011;52478;51.844;6.582;2023-05-01T07:58:31;7.57;;;2.97;;
65737;SDS011;52478;51.844;6.582;2023-05-01T08:00:57;7.13;;;2.65;;
65737;SDS011;52478;51.844;6.582;2023-05-01T08:03:24;5.82;;;2.67;;
65737;SDS011;52478;51.844;6.582;2023-05-01T08:05:52;6.78;;;3.30;;
65737;SDS011;52478;51.844;6.582;2023-05-01T08:08:20;8.65;;;2.80;;
65737;SDS011;52478;51.844;6.582;2023-05-01T08:10:46;7.82;;;3.38;;
65737;SDS011;52478;51.844;6.582;2023-05-01T08:13:13;6.15;;;2.75;;
65737;SDS011;52478;51.844;6.582;2023-05-01T08:15:40;7.00;;;2.83;;
65737;SDS011;52478;51.844;6.582;2023-05-01T08:18:06;6.35;;;2.58;;
65737;SDS011;52478;51.844;6.582;2023-05-01T08:20:34;7.28;;;2.67;;
65737;SDS011;52478;51.844;6.582;2023-05-01T08:23:00;7.68;;;2.65;;
65737;SDS011;52478;51.844;6.582;2023-05-01T08:25:29;7.97;;;2.70;;
65737;SDS011;52478;51.844;6.582;2023-05-01T08:27:56;7.85;;;2.92;;
65737;SDS011;52478;51.844;6.582;2023-05-01T08:30:22;7.72;;;3.33;;
65737;SDS011;52478;51.844;6.582;2023-05-01T08:32:50;8.98;;;3.17;;
65737;SDS011;52478;51.844;6.582;2023-05-01T08:35:16;9.43;;;3.30;;
65737;SDS011;52478;51.844;6.582;2023-05-01T08:37:43;8.30;;;2.80;;
65737;SDS011;52478;51.844;6.582;2023-05-01T08:40:09;8.55;;;2.90;;
65737;SDS011;52478;51.844;6.582;2023-05-01T08:42:38;14.15;;;3.15;;
65737;SDS011;52478;51.844;6.582;2023-05-01T08:45:06;9.60;;;3.17;;
65737;SDS011;52478;51.844;6.582;2023-05-01T08:47:34;13.68;;;3.20;;
65737;SDS011;52478;51.844;6.582;2023-05-01T08:50:02;10.95;;;3.05;;
65737;SDS011;52478;51.844;6.582;2023-05-01T08:52:29;8.75;;;3.22;;
65737;SDS011;52478;51.844;6.582;2023-05-01T08:54:58;8.63;;;3.00;;
65737;SDS011;52478;51.844;6.582;2023-05-01T08:57:25;7.60;;;3.05;;
65737;SDS011;52478;51.844;6.582;2023-05-01T08:59:55;8.07;;;3.70;;
65737;SDS011;52478;51.844;6.582;2023-05-01T09:02:23;8.20;;;3.00;;
65737;SDS011;52478;51.844;6.582;2023-05-01T09:04:50;7.68;;;3.13;;
65737;SDS011;52478;51.844;6.582;2023-05-01T09:07:18;8.43;;;3.60;;
65737;SDS011;52478;51.844;6.582;2023-05-01T09:09:44;9.63;;;3.25;;
65737;SDS011;52478;51.844;6.582;2023-05-01T09:12:12;7.20;;;3.20;;
65737;SDS011;52478;51.844;6.582;2023-05-01T09:14:48;7.68;;;3.22;;
65737;SDS011;52478;51.844;6.582;2023-05-01T09:17:16;7.68;;;3.55;;
65737;SDS011;52478;51.844;6.582;2023-05-01T09:19:44;8.35;;;3.47;;
65737;SDS011;52478;51.844;6.582;2023-05-01T09:22:11;9.38;;;3.53;;
65737;SDS011;52478;51.844;6.582;2023-05-01T09:24:37;7.88;;;3.38;;
65737;SDS011;52478;51.844;6.582;2023-05-01T09:27:04;7.95;;;3.25;;
65737;SDS011;52478;51.844;6.582;2023-05-01T09:32:14;7.55;;;3.00;;
65737;SDS011;52478;51.844;6.582;2023-05-01T09:34:43;7.35;;;2.70;;
65737;SDS011;52478;51.844;6.582;2023-05-01T09:37:11;7.47;;;3.63;;
65737;SDS011;52478;51.844;6.582;2023-05-01T09:39:39;9.52;;;3.25;;
65737;SDS011;52478;51.844;6.582;2023-05-01T09:42:06;6.13;;;3.03;;
65737;SDS011;52478;51.844;6.582;2023-05-01T09:44:39;9.10;;;3.42;;
65737;SDS011;52478;51.844;6.582;2023-05-01T09:47:06;7.57;;;3.10;;
65737;SDS011;52478;51.844;6.582;2023-05-01T09:49:44;7.45;;;3.47;;
65737;SDS011;52478;51.844;6.582;2023-05-01T09:52:12;9.15;;;3.33;;
65737;SDS011;52478;51.844;6.582;2023-05-01T09:57:05;12.88;;;3.45;;
65737;SDS011;52478;51.844;6.582;2023-05-01T09:59:32;17.02;;;3.75;;
65737;SDS011;52478;51.844;6.582;2023-05-01T10:01:59;9.00;;;3.42;;
65737;SDS011;52478;51.844;6.582;2023-05-01T10:04:29;9.93;;;3.08;;
65737;SDS011;52478;51.844;6.582;2023-05-01T10:06:58;11.23;;;3.47;;
65737;SDS011;52478;51.844;6.582;2023-05-01T10:09:35;10.50;;;3.30;;
65737;SDS011;52478;51.844;6.582;2023-05-01T10:12:02;8.98;;;3.33;;
65737;SDS011;52478;51.844;6.582;2023-05-01T10:14:28;6.80;;;3.42;;
65737;SDS011;52478;51.844;6.582;2023-05-01T10:16:57;11.20;;;4.00;;
65737;SDS011;52478;51.844;6.582;2023-05-01T10:19:24;12.68;;;5.20;;
65737;SDS011;52478;51.844;6.582;2023-05-01T10:21:50;8.82;;;4.00;;
65737;SDS011;52478;51.844;6.582;2023-05-01T10:24:19;9.13;;;3.58;;
65737;SDS011;52478;51.844;6.582;2023-05-01T10:26:47;13.48;;;10.02;;
65737;SDS011;52478;51.844;6.582;2023-05-01T10:29:13;17.42;;;15.27;;
65737;SDS011;52478;51.844;6.582;2023-05-01T10:31:40;13.43;;;8.85;;
65737;SDS011;52478;51.844;6.582;2023-05-01T10:34:06;11.43;;;8.30;;
65737;SDS011;52478;51.844;6.582;2023-05-01T10:36:35;9.52;;;5.47;;
65737;SDS011;52478;51.844;6.582;2023-05-01T10:39:05;7.13;;;4.13;;
65737;SDS011;52478;51.844;6.582;2023-05-01T10:44:28;8.10;;;3.80;;
65737;SDS011;52478;51.844;6.582;2023-05-01T10:46:55;6.88;;;3.08;;
65737;SDS011;52478;51.844;6.582;2023-05-01T10:49:22;6.70;;;3.15;;
65737;SDS011;52478;51.844;6.582;2023-05-01T10:54:33;7.10;;;2.95;;
65737;SDS011;52478;51.844;6.582;2023-05-01T10:57:01;6.55;;;3.13;;
65737;SDS011;52478;51.844;6.582;2023-05-01T11:00:08;7.80;;;2.90;;
65737;SDS011;52478;51.844;6.582;2023-05-01T11:02:38;8.50;;;3.05;;
65737;SDS011;52478;51.844;6.582;2023-05-01T11:05:05;6.72;;;3.03;;
65737;SDS011;52478;51.844;6.582;2023-05-01T11:09:59;8.50;;;3.13;;
65737;SDS011;52478;51.844;6.582;2023-05-01T11:15:29;8.45;;;3.60;;
65737;SDS011;52478;51.844;6.582;2023-05-01T11:17:57;8.68;;;3.20;;
65737;SDS011;52478;51.844;6.582;2023-05-01T11:20:47;7.18;;;3.28;;
65737;SDS011;52478;51.844;6.582;2023-05-01T11:23:17;7.90;;;3.60;;
65737;SDS011;52478;51.844;6.582;2023-05-01T11:25:45;11.40;;;3.60;;
65737;SDS011;52478;51.844;6.582;2023-05-01T11:28:16;7.75;;;3.53;;
65737;SDS011;52478;51.844;6.582;2023-05-01T11:30:45;7.88;;;3.50;;
65737;SDS011;52478;51.844;6.582;2023-05-01T11:33:11;10.45;;;4.05;;
65737;SDS011;52478;51.844;6.582;2023-05-01T11:35:40;7.95;;;3.42;;
65737;SDS011;52478;51.844;6.582;2023-05-01T11:38:15;6.90;;;3.00;;
65737;SDS011;52478;51.844;6.582;2023-05-01T11:40:42;8.23;;;3.22;;
65737;SDS011;52478;51.844;6.582;2023-05-01T11:43:09;8.68;;;3.00;;
65737;SDS011;52478;51.844;6.582;2023-05-01T11:45:38;7.38;;;3.40;;
65737;SDS011;52478;51.844;6.582;2023-05-01T11:48:05;8.77;;;2.85;;
65737;SDS011;52478;51.844;6.582;2023-05-01T11:50:39;6.88;;;3.17;;
65737;SDS011;52478;51.844;6.582;2023-05-01T11:53:09;8.32;;;3.03;;
65737;SDS011;52478;51.844;6.582;2023-05-01T11:55:37;6.35;;;3.00;;
65737;SDS011;52478;51.844;6.582;2023-05-01T11:58:04;5.90;;;2.65;;
65737;SDS011;52478;51.844;6.582;2023-05-01T12:00:31;6.10;;;2.58;;
65737;SDS011;52478;51.844;6.582;2023-05-01T12:03:02;6.63;;;3.17;;
65737;SDS011;52478;51.844;6.582;2023-05-01T12:05:30;6.57;;;2.63;;
65737;SDS011;52478;51.844;6.582;2023-05-01T12:08:07;6.03;;;2.97;;
65737;SDS011;52478;51.844;6.582;2023-05-01T12:10:34;6.78;;;3.25;;
65737;SDS011;52478;51.844;6.582;2023-05-01T12:13:01;7.63;;;3.03;;
65737;SDS011;52478;51.844;6.582;2023-05-01T12:15:28;6.43;;;3.42;;
65737;SDS011;52478;51.844;6.582;2023-05-01T12:17:55;7.35;;;3.35;;
65737;SDS011;52478;51.844;6.582;2023-05-01T12:20:34;7.60;;;2.85;;
65737;SDS011;52478;51.844;6.582;2023-05-01T12:23:03;7.72;;;2.92;;
65737;SDS011;52478;51.844;6.582;2023-05-01T12:27:58;7.28;;;2.97;;
65737;SDS011;52478;51.844;6.582;2023-05-01T12:30:25;6.95;;;3.08;;
65737;SDS011;52478;51.844;6.582;2023-05-01T12:32:53;8.40;;;3.20;;
65737;SDS011;52478;51.844;6.582;2023-05-01T12:35:20;7.35;;;2.88;;
65737;SDS011;52478;51.844;6.582;2023-05-01T12:37:49;7.05;;;3.08;;
65737;SDS011;52478;51.844;6.582;2023-05-01T12:40:15;7.68;;;3.35;;
65737;SDS011;52478;51.844;6.582;2023-05-01T12:42:43;7.22;;;3.22;;
65737;SDS011;52478;51.844;6.582;2023-05-01T12:45:10;6.35;;;3.10;;
65737;SDS011;52478;51.844;6.582;2023-05-01T12:47:39;6.82;;;2.60;;
65737;SDS011;52478;51.844;6.582;2023-05-01T12:50:06;6.63;;;2.67;;
65737;SDS011;52478;51.844;6.582;2023-05-01T12:52:34;5.60;;;2.35;;
65737;SDS011;52478;51.844;6.582;2023-05-01T12:55:02;6.00;;;2.40;;
65737;SDS011;52478;51.844;6.582;2023-05-01T12:57:29;5.25;;;2.00;;
65737;SDS011;52478;51.844;6.582;2023-05-01T12:59:59;5.60;;;2.42;;
65737;SDS011;52478;51.844;6.582;2023-05-01T13:02:30;5.35;;;2.30;;
65737;SDS011;52478;51.844;6.582;2023-05-01T13:05:04;5.05;;;2.05;;
65737;SDS011;52478;51.844;6.582;2023-05-01T13:07:31;6.05;;;2.40;;
65737;SDS011;52478;51.844;6.582;2023-05-01T13:09:58;4.90;;;2.05;;
65737;SDS011;52478;51.844;6.582;2023-05-01T13:12:26;5.50;;;2.42;;
65737;SDS011;52478;51.844;6.582;2023-05-01T13:14:54;5.35;;;2.33;;
65737;SDS011;52478;51.844;6.582;2023-05-01T13:17:22;5.55;;;2.13;;
65737;SDS011;52478;51.844;6.582;2023-05-01T13:19:53;5.20;;;2.15;;
65737;SDS011;52478;51.844;6.582;2023-05-01T13:22:27;7.07;;;2.22;;
65737;SDS011;52478;51.844;6.582;2023-05-01T13:24:55;4.93;;;2.05;;
65737;SDS011;52478;51.844;6.582;2023-05-01T13:27:22;5.32;;;2.20;;
65737;SDS011;52478;51.844;6.582;2023-05-01T13:29:52;5.18;;;2.00;;
65737;SDS011;52478;51.844;6.582;2023-05-01T13:32:21;8.90;;;2.60;;
65737;SDS011;52478;51.844;6.582;2023-05-01T13:34:48;6.85;;;2.25;;
65737;SDS011;52478;51.844;6.582;2023-05-01T13:37:15;5.88;;;2.20;;
65737;SDS011;52478;51.844;6.582;2023-05-01T13:39:42;5.28;;;2.20;;
65737;SDS011;52478;51.844;6.582;2023-05-01T13:42:10;6.10;;;2.22;;
65737;SDS011;52478;51.844;6.582;2023-05-01T13:44:41;5.35;;;2.22;;
65737;SDS011;52478;51.844;6.582;2023-05-01T13:47:10;6.25;;;2.30;;
65737;SDS011;52478;51.844;6.582;2023-05-01T13:49:40;5.28;;;2.15;;
65737;SDS011;52478;51.844;6.582;2023-05-01T13:52:09;5.75;;;2.30;;
65737;SDS011;52478;51.844;6.582;2023-05-01T13:54:36;6.47;;;2.45;;
65737;SDS011;52478;51.844;6.582;2023-05-01T13:57:05;7.35;;;2.80;;
65737;SDS011;52478;51.844;6.582;2023-05-01T13:59:34;6.93;;;2.65;;
65737;SDS011;52478;51.844;6.582;2023-05-01T14:02:04;7.25;;;2.90;;
65737;SDS011;52478;51.844;6.582;2023-05-01T14:04:45;5.88;;;2.80;;
65737;SDS011;52478;51.844;6.582;2023-05-01T14:07:13;6.35;;;2.25;;
65737;SDS011;52478;51.844;6.582;2023-05-01T14:09:43;5.65;;;2.67;;
65737;SDS011;52478;51.844;6.582;2023-05-01T14:12:11;6.13;;;2.95;;
65737;SDS011;52478;51.844;6.582;2023-05-01T14:14:41;6.53;;;2.88;;
65737;SDS011;52478;51.844;6.582;2023-05-01T14:17:11;6.65;;;2.88;;
65737;SDS011;52478;51.844;6.582;2023-05-01T14:19:39;8.50;;;3.40;;
65737;SDS011;52478;51.844;6.582;2023-05-01T14:22:06;7.68;;;3.28;;
65737;SDS011;52478;51.844;6.582;2023-05-01T14:24:34;7.63;;;3.80;;
65737;SDS011;52478;51.844;6.582;2023-05-01T14:27:01;7.70;;;3.03;;
65737;SDS011;52478;51.844;6.582;2023-05-01T14:29:28;10.13;;;3.33;;
65737;SDS011;52478;51.844;6.582;2023-05-01T14:31:54;8.93;;;3.38;;
65737;SDS011;52478;51.844;6.582;2023-05-01T14:34:21;8.43;;;3.47;;
65737;SDS011;52478;51.844;6.582;2023-05-01T14:36:49;7.03;;;3.33;;
65737;SDS011;52478;51.844;6.582;2023-05-01T14:39:16;8.00;;;3.53;;
65737;SDS011;52478;51.844;6.582;2023-05-01T14:41:43;8.55;;;3.30;;
65737;SDS011;52478;51.844;6.582;2023-05-01T14:44:10;10.13;;;3.35;;
65737;SDS011;52478;51.844;6.582;2023-05-01T14:46:41;9.02;;;3.10;;
65737;SDS011;52478;51.844;6.582;2023-05-01T14:49:09;7.15;;;2.88;;
65737;SDS011;52478;51.844;6.582;2023-05-01T14:51:38;9.80;;;3.22;;
65737;SDS011;52478;51.844;6.582;2023-05-01T14:54:09;8.15;;;3.42;;
65737;SDS011;52478;51.844;6.582;2023-05-01T14:56:35;8.27;;;2.90;;
65737;SDS011;52478;51.844;6.582;2023-05-01T14:59:02;8.15;;;2.97;;
65737;SDS011;52478;51.844;6.582;2023-05-01T15:01:28;7.45;;;2.75;;
65737;SDS011;52478;51.844;6.582;2023-05-01T15:03:55;7.82;;;3.55;;
65737;SDS011;52478;51.844;6.582;2023-05-01T15:06:21;9.38;;;2.95;;
65737;SDS011;52478;51.844;6.582;2023-05-01T15:08:48;7.55;;;2.88;;
65737;SDS011;52478;51.844;6.582;2023-05-01T15:11:16;6.80;;;2.70;;
65737;SDS011;52478;51.844;6.582;2023-05-01T15:13:44;7.28;;;2.65;;
65737;SDS011;52478;51.844;6.582;2023-05-01T15:16:13;8.82;;;3.05;;
65737;SDS011;52478;51.844;6.582;2023-05-01T15:18:39;8.55;;;3.00;;
65737;SDS011;52478;51.844;6.582;2023-05-01T15:21:06;8.43;;;2.83;;
65737;SDS011;52478;51.844;6.582;2023-05-01T15:23:32;6.78;;;2.67;;
65737;SDS011;52478;51.844;6.582;2023-05-01T15:26:01;6.45;;;2.72;;
65737;SDS011;52478;51.844;6.582;2023-05-01T15:28:29;6.03;;;2.50;;
65737;SDS011;52478;51.844;6.582;2023-05-01T15:30:56;7.63;;;2.70;;
65737;SDS011;52478;51.844;6.582;2023-05-01T15:33:22;7.35;;;2.88;;